createdAt,value
2023-01-03T00:01:59.166Z,3.38
2023-01-03T00:04:26.132Z,0.90
2023-01-03T00:06:53.937Z,0.90
2023-01-03T00:09:24.635Z,0.68
2023-01-03T00:11:53.171Z,0.98
2023-01-03T00:14:23.131Z,0.73
2023-01-03T00:16:53.550Z,1.27
2023-01-03T00:19:21.489Z,2.40
2023-01-03T00:21:48.592Z,0.73
2023-01-03T00:24:15.677Z,0.80
2023-01-03T00:26:42.942Z,0.70
2023-01-03T00:29:10.103Z,0.50
2023-01-03T00:31:37.490Z,0.45
2023-01-03T00:34:06.256Z,0.40
2023-01-03T00:36:33.378Z,0.65
2023-01-03T00:39:00.321Z,0.70
2023-01-03T00:41:27.396Z,0.30
2023-01-03T00:43:54.258Z,0.90
2023-01-03T00:46:21.136Z,0.63
2023-01-03T00:48:48.344Z,0.63
2023-01-03T00:51:18.482Z,0.32
2023-01-03T00:53:46.339Z,0.63
2023-01-03T00:56:15.123Z,0.50
2023-01-03T00:58:42.409Z,0.43
2023-01-03T01:01:11.224Z,0.40
2023-01-03T01:03:39.886Z,0.88
2023-01-03T01:06:15.105Z,0.28
2023-01-03T01:08:44.019Z,0.90
2023-01-03T01:11:11.603Z,0.40
2023-01-03T01:13:39.259Z,0.75
2023-01-03T01:16:08.490Z,0.57
2023-01-03T01:18:36.364Z,1.27
2023-01-03T01:21:04.890Z,0.52
2023-01-03T01:23:31.730Z,0.30
2023-01-03T01:26:02.070Z,0.50
2023-01-03T01:28:29.201Z,0.63
2023-01-03T01:30:58.491Z,0.85
2023-01-03T01:33:25.428Z,0.43
2023-01-03T01:35:52.174Z,0.50
2023-01-03T01:38:18.947Z,0.75
2023-01-03T01:40:45.722Z,0.50
2023-01-03T01:43:17.599Z,0.77
2023-01-03T01:45:46.152Z,0.47
2023-01-03T01:48:13.671Z,1.13
2023-01-03T01:50:43.674Z,2.25
2023-01-03T01:53:12.849Z,0.40
2023-01-03T01:55:43.378Z,0.50
2023-01-03T01:58:11.237Z,0.50
2023-01-03T02:00:41.012Z,0.75
2023-01-03T02:03:08.417Z,0.55
2023-01-03T02:05:36.874Z,0.68
2023-01-03T02:08:04.456Z,0.90
2023-01-03T02:10:56.228Z,0.93
2023-01-03T02:13:31.427Z,0.45
2023-01-03T02:16:18.407Z,0.57
2023-01-03T02:18:54.237Z,0.40
2023-01-03T02:21:50.550Z,0.60
2023-01-03T02:24:43.132Z,0.45
2023-01-03T02:27:31.378Z,1.75
2023-01-03T02:30:32.821Z,0.57
2023-01-03T02:33:07.670Z,0.82
2023-01-03T02:35:44.008Z,1.45
2023-01-03T02:38:17.586Z,0.75
2023-01-03T02:40:47.157Z,0.60
2023-01-03T02:43:19.353Z,1.65
2023-01-03T02:46:03.664Z,0.45
2023-01-03T02:48:40.468Z,0.40
2023-01-03T02:51:12.720Z,0.38
2023-01-03T02:53:43.170Z,0.50
2023-01-03T02:56:12.394Z,0.40
2023-01-03T02:58:43.502Z,0.70
2023-01-03T03:01:13.093Z,0.40
2023-01-03T03:03:40.377Z,0.77
2023-01-03T03:06:12.575Z,0.60
2023-01-03T03:08:39.429Z,1.60
2023-01-03T03:11:06.907Z,0.50
2023-01-03T03:13:37.665Z,0.63
2023-01-03T03:16:09.128Z,0.45
2023-01-03T03:18:47.620Z,0.60
2023-01-03T03:21:18.348Z,0.40
2023-01-03T03:23:48.715Z,0.50
2023-01-03T03:26:19.232Z,0.47
2023-01-03T03:28:49.935Z,0.68
2023-01-03T03:31:20.582Z,0.50
2023-01-03T03:33:53.190Z,0.95
2023-01-03T03:36:27.960Z,0.40
2023-01-03T03:38:54.915Z,0.70
2023-01-03T03:41:28.443Z,2.53
2023-01-03T03:44:03.654Z,0.82
2023-01-03T03:46:38.332Z,0.57
2023-01-03T03:49:12.194Z,0.80
2023-01-03T03:51:42.120Z,0.73
2023-01-03T03:54:14.108Z,0.68
2023-01-03T03:56:42.762Z,0.82
2023-01-03T03:59:11.494Z,0.40
2023-01-03T04:01:40.243Z,0.65
2023-01-03T04:04:13.525Z,0.60
2023-01-03T04:06:44.165Z,0.60
2023-01-03T04:09:12.055Z,1.08
2023-01-03T04:11:38.743Z,0.98
2023-01-03T04:14:05.511Z,0.70
2023-01-03T04:16:32.402Z,0.60
2023-01-03T04:18:59.291Z,1.25
2023-01-03T04:21:27.394Z,0.85
2023-01-03T04:23:54.090Z,1.80
2023-01-03T04:26:20.805Z,0.75
2023-01-03T04:28:47.518Z,0.60
2023-01-03T04:31:14.355Z,0.73
2023-01-03T04:33:41.733Z,0.50
2023-01-03T04:36:09.457Z,1.35
2023-01-03T04:38:37.791Z,0.80
2023-01-03T04:41:05.718Z,0.52
2023-01-03T04:43:32.487Z,1.52
2023-01-03T04:45:59.326Z,1.00
2023-01-03T04:48:26.111Z,0.88
2023-01-03T04:50:53.101Z,1.30
2023-01-03T04:53:19.813Z,1.05
2023-01-03T04:55:48.744Z,0.63
2023-01-03T04:58:15.584Z,0.80
2023-01-03T05:00:42.380Z,0.77
2023-01-03T05:03:09.355Z,1.33
2023-01-03T05:05:36.859Z,0.90
2023-01-03T05:08:04.208Z,0.73
2023-01-03T05:10:30.928Z,0.90
2023-01-03T05:12:58.981Z,1.30
2023-01-03T05:15:26.101Z,1.08
2023-01-03T05:17:52.859Z,2.38
2023-01-03T05:20:19.675Z,1.50
2023-01-03T05:22:46.436Z,0.73
2023-01-03T05:25:14.097Z,1.63
2023-01-03T05:27:41.199Z,1.98
2023-01-03T05:30:10.338Z,0.70
2023-01-03T05:32:37.036Z,0.68
2023-01-03T05:35:04.111Z,1.33
2023-01-03T05:37:30.808Z,1.05
2023-01-03T05:39:57.510Z,1.50
2023-01-03T05:42:24.236Z,2.10
2023-01-03T05:44:50.953Z,1.55
2023-01-03T05:47:19.593Z,1.00
2023-01-03T05:49:46.785Z,1.35
2023-01-03T05:52:13.481Z,1.15
2023-01-03T05:54:40.216Z,3.22
2023-01-03T05:57:06.956Z,1.10
2023-01-03T05:59:33.772Z,1.60
2023-01-03T06:02:00.627Z,2.03
2023-01-03T06:04:28.849Z,1.55
2023-01-03T06:06:55.560Z,0.85
2023-01-03T06:09:22.311Z,1.73
2023-01-03T06:11:49.085Z,1.75
2023-01-03T06:14:15.780Z,2.20
2023-01-03T06:16:42.532Z,1.35
2023-01-03T06:19:09.370Z,1.60
2023-01-03T06:21:37.814Z,1.10
2023-01-03T06:24:05.514Z,1.77
2023-01-03T06:26:32.298Z,1.55
2023-01-03T06:28:59.589Z,1.58
2023-01-03T06:31:26.727Z,2.00
2023-01-03T06:33:53.591Z,1.30
2023-01-03T06:36:22.146Z,1.20
2023-01-03T06:38:50.176Z,3.58
2023-01-03T06:41:17.462Z,2.03
2023-01-03T06:43:44.863Z,2.35
2023-01-03T06:46:12.894Z,2.10
2023-01-03T06:48:40.003Z,2.92
2023-01-03T06:51:08.706Z,3.17
2023-01-03T06:53:38.066Z,2.00
2023-01-03T06:56:08.706Z,1.90
2023-01-03T06:58:36.277Z,3.85
2023-01-03T07:01:04.929Z,2.83
2023-01-03T07:03:32.059Z,2.17
2023-01-03T07:05:58.948Z,1.60
2023-01-03T07:08:25.671Z,2.15
2023-01-03T07:10:52.372Z,2.65
2023-01-03T07:13:20.421Z,2.15
2023-01-03T07:15:47.224Z,3.03
2023-01-03T07:18:14.124Z,3.03
2023-01-03T07:20:41.784Z,2.95
2023-01-03T07:23:08.706Z,2.63
2023-01-03T07:25:35.430Z,5.05
2023-01-03T07:28:07.106Z,3.00
2023-01-03T07:30:41.274Z,5.03
2023-01-03T07:33:08.571Z,2.42
2023-01-03T07:35:36.221Z,1.85
2023-01-03T07:38:03.727Z,2.40
2023-01-03T07:40:30.463Z,3.03
2023-01-03T07:42:57.186Z,2.60
2023-01-03T07:45:23.895Z,3.03
2023-01-03T07:47:52.092Z,3.08
2023-01-03T07:50:18.816Z,2.85
2023-01-03T07:52:45.508Z,3.42
2023-01-03T07:55:12.202Z,2.25
2023-01-03T07:57:38.907Z,2.35
2023-01-03T08:00:06.549Z,2.58
2023-01-03T08:02:33.392Z,3.08
2023-01-03T08:05:01.692Z,3.22
2023-01-03T08:07:28.420Z,2.60
2023-01-03T08:09:55.129Z,3.67
2023-01-03T08:12:21.858Z,4.30
2023-01-03T08:14:48.597Z,3.65
2023-01-03T08:17:15.290Z,4.65
2023-01-03T08:19:45.726Z,3.72
2023-01-03T08:22:14.181Z,2.55
2023-01-03T08:24:40.926Z,1.80
2023-01-03T08:27:07.606Z,2.78
2023-01-03T08:29:34.338Z,2.88
2023-01-03T08:32:01.319Z,3.42
2023-01-03T08:34:31.378Z,3.00
2023-01-03T08:37:01.124Z,5.68
2023-01-03T08:39:34.541Z,3.72
2023-01-03T08:42:06.493Z,7.00
2023-01-03T08:44:33.515Z,4.40
2023-01-03T08:47:06.113Z,4.07
2023-01-03T08:49:34.805Z,3.15
2023-01-03T08:52:01.521Z,2.92
2023-01-03T08:54:29.614Z,5.80
2023-01-03T08:56:56.521Z,3.95
2023-01-03T08:59:23.445Z,3.22
2023-01-03T09:01:50.334Z,3.97
2023-01-03T09:04:17.262Z,3.63
2023-01-03T09:06:44.004Z,4.45
2023-01-03T09:09:10.739Z,3.17
2023-01-03T09:11:38.809Z,4.90
2023-01-03T09:14:05.496Z,4.68
2023-01-03T09:16:32.256Z,4.82
2023-01-03T09:18:59.150Z,6.05
2023-01-03T09:21:25.871Z,3.85
2023-01-03T09:23:52.561Z,3.50
2023-01-03T09:26:19.295Z,3.58
2023-01-03T09:28:47.614Z,3.88
2023-01-03T09:31:14.334Z,3.72
2023-01-03T09:33:41.164Z,3.25
2023-01-03T09:36:08.278Z,2.85
2023-01-03T09:38:35.045Z,2.97
2023-01-03T09:41:03.680Z,3.45
2023-01-03T09:43:35.652Z,3.47
2023-01-03T09:46:04.127Z,4.18
2023-01-03T09:48:34.593Z,5.95
2023-01-03T09:51:24.030Z,3.70
2023-01-03T09:53:48.340Z,4.18
2023-01-03T09:56:15.214Z,4.15
2023-01-03T09:58:43.368Z,3.55
2023-01-03T10:01:26.622Z,7.35
2023-01-03T10:04:06.469Z,3.17
2023-01-03T10:06:48.041Z,3.50
2023-01-03T10:09:27.393Z,3.42
2023-01-03T10:12:08.528Z,3.25
2023-01-03T10:14:49.099Z,5.15
2023-01-03T10:17:25.692Z,4.90
2023-01-03T10:20:18.832Z,6.50
2023-01-03T10:22:47.277Z,5.25
2023-01-03T10:25:17.672Z,3.85
2023-01-03T10:27:47.539Z,4.68
2023-01-03T10:30:18.415Z,2.83
2023-01-03T10:33:09.536Z,3.38
2023-01-03T10:35:36.891Z,5.47
2023-01-03T10:38:04.183Z,3.38
2023-01-03T10:40:36.860Z,5.05
2023-01-03T10:43:17.830Z,6.15
2023-01-03T10:45:56.251Z,3.65
2023-01-03T10:48:25.819Z,4.68
2023-01-03T10:50:52.560Z,5.32
2023-01-03T10:53:22.560Z,4.13
2023-01-03T10:55:51.656Z,3.97
2023-01-03T10:58:23.111Z,5.38
2023-01-03T11:00:49.890Z,4.30
2023-01-03T11:03:19.168Z,4.22
2023-01-03T11:05:48.861Z,5.80
2023-01-03T11:08:21.786Z,4.38
2023-01-03T11:10:57.741Z,3.08
2023-01-03T11:13:32.583Z,5.07
2023-01-03T11:16:01.730Z,2.95
2023-01-03T11:18:29.895Z,5.18
2023-01-03T11:21:06.053Z,4.22
2023-01-03T11:24:00.500Z,6.03
2023-01-03T11:26:41.444Z,3.28
2023-01-03T11:29:27.985Z,3.85
2023-01-03T11:32:02.849Z,7.13
2023-01-03T11:35:21.407Z,3.58
2023-01-03T11:37:45.370Z,4.57
2023-01-03T11:40:18.921Z,5.65
2023-01-03T11:42:55.050Z,4.22
2023-01-03T11:45:48.179Z,4.15
2023-01-03T11:48:28.845Z,4.23
2023-01-03T11:51:03.031Z,2.95
2023-01-03T11:56:24.779Z,3.92
2023-01-03T11:59:11.658Z,2.92
2023-01-03T12:01:50.011Z,4.22
2023-01-03T12:04:25.694Z,3.60
2023-01-03T12:07:37.498Z,7.35
2023-01-03T12:10:00.721Z,4.38
2023-01-03T12:12:53.708Z,3.30
2023-01-03T12:15:24.861Z,3.20
2023-01-03T12:17:57.712Z,4.05
2023-01-03T12:20:28.044Z,2.97
2023-01-03T12:23:00.949Z,3.38
2023-01-03T12:25:34.877Z,3.65
2023-01-03T12:28:07.404Z,2.78
2023-01-03T12:30:42.138Z,4.65
2023-01-03T12:33:20.115Z,4.72
2023-01-03T12:35:51.012Z,4.95
2023-01-03T12:38:27.444Z,2.70
2023-01-03T12:40:59.555Z,4.05
2023-01-03T12:43:33.432Z,1.95
2023-01-03T12:46:12.653Z,2.55
2023-01-03T12:48:51.470Z,3.35
2023-01-03T12:51:20.615Z,2.35
2023-01-03T12:53:51.007Z,2.97
2023-01-03T12:56:48.419Z,3.22
2023-01-03T12:59:27.568Z,2.33
2023-01-03T13:01:57.299Z,2.35
2023-01-03T13:04:30.205Z,1.83
2023-01-03T13:07:03.578Z,2.03
2023-01-03T13:09:33.451Z,3.15
2023-01-03T13:12:06.133Z,2.22
2023-01-03T13:14:51.545Z,4.25
2023-01-03T13:17:19.783Z,3.15
2023-01-03T13:19:55.414Z,2.53
2023-01-03T13:22:45.171Z,2.40
2023-01-03T13:25:34.132Z,4.65
2023-01-03T13:28:05.978Z,4.55
2023-01-03T13:30:34.377Z,2.08
2023-01-03T13:33:16.124Z,1.75
2023-01-03T13:35:58.245Z,3.03
2023-01-03T13:38:29.180Z,2.30
2023-01-03T13:43:48.684Z,2.38
2023-01-03T13:46:21.996Z,2.63
2023-01-03T13:48:54.918Z,3.13
2023-01-03T13:51:32.183Z,2.72
2023-01-03T13:54:01.697Z,3.28
2023-01-03T13:56:30.689Z,3.85
2023-01-03T13:59:18.907Z,2.70
2023-01-03T14:01:59.213Z,3.60
2023-01-03T14:04:52.223Z,3.40
2023-01-03T14:07:50.943Z,3.50
2023-01-03T14:10:36.010Z,3.28
2023-01-03T14:13:35.649Z,3.00
2023-01-03T14:16:28.861Z,3.55
2023-01-03T14:19:03.477Z,4.80
2023-01-03T14:21:46.304Z,3.13
2023-01-03T14:24:21.633Z,3.15
2023-01-03T14:26:48.672Z,3.45
2023-01-03T14:29:19.613Z,2.78
2023-01-03T14:31:50.228Z,3.20
2023-01-03T14:34:30.491Z,4.38
2023-01-03T14:37:02.475Z,2.20
2023-01-03T14:41:56.504Z,4.07
2023-01-03T14:44:23.213Z,3.55
2023-01-03T14:46:54.678Z,6.18
2023-01-03T14:49:24.465Z,4.88
2023-01-03T14:51:53.082Z,5.32
2023-01-03T14:54:20.148Z,4.40
2023-01-03T14:56:48.351Z,5.97
2023-01-03T14:59:19.839Z,4.15
2023-01-03T15:01:47.222Z,4.63
2023-01-03T15:04:16.971Z,4.20
2023-01-03T15:07:01.535Z,4.38
2023-01-03T15:09:35.168Z,3.15
2023-01-03T15:12:04.854Z,3.33
2023-01-03T15:14:34.476Z,3.70
2023-01-03T15:17:04.634Z,3.45
2023-01-03T15:19:34.457Z,3.20
2023-01-03T15:22:08.667Z,3.80
2023-01-03T15:29:55.463Z,4.50
2023-01-03T15:32:22.281Z,4.53
2023-01-03T15:34:50.380Z,4.05
2023-01-03T15:37:21.578Z,3.50
2023-01-03T15:39:50.941Z,4.18
2023-01-03T15:42:43.585Z,5.05
2023-01-03T15:45:11.672Z,4.63
2023-01-03T15:47:39.241Z,8.00
2023-01-03T15:50:13.164Z,8.30
2023-01-03T15:52:39.940Z,7.93
2023-01-03T15:55:07.475Z,11.82
2023-01-03T15:57:34.354Z,11.77
2023-01-03T16:00:03.168Z,10.98
2023-01-03T16:02:30.589Z,14.27
2023-01-03T16:04:58.067Z,21.38
2023-01-03T16:07:26.149Z,20.42
2023-01-03T16:09:52.870Z,14.60
2023-01-03T16:12:22.712Z,15.00
2023-01-03T16:14:52.996Z,15.05
2023-01-03T16:17:25.079Z,19.75
2023-01-03T16:19:52.756Z,16.75
2023-01-03T16:22:37.087Z,14.55
2023-01-03T16:25:06.833Z,14.77
2023-01-03T16:27:33.768Z,17.10
2023-01-03T16:30:00.570Z,12.20
2023-01-03T16:32:29.820Z,8.90
2023-01-03T16:34:59.422Z,7.30
2023-01-03T16:37:26.218Z,7.78
2023-01-03T16:39:53.077Z,9.10
2023-01-03T16:42:21.149Z,8.95
2023-01-03T16:44:49.021Z,9.10
2023-01-03T16:47:19.513Z,7.90
2023-01-03T16:49:50.268Z,7.93
2023-01-03T16:52:24.195Z,6.18
2023-01-03T16:54:51.124Z,7.72
2023-01-03T16:57:18.949Z,6.97
2023-01-03T16:59:48.251Z,5.10
2023-01-03T17:02:15.151Z,6.82
2023-01-03T17:04:42.144Z,9.20
2023-01-03T17:07:18.014Z,5.75
2023-01-03T17:09:47.588Z,5.75
2023-01-03T17:12:16.891Z,7.15
2023-01-03T17:14:43.727Z,8.27
2023-01-03T17:17:16.422Z,7.80
2023-01-03T17:20:03.347Z,5.72
2023-01-03T17:22:30.001Z,8.52
2023-01-03T17:24:56.788Z,14.75
2023-01-03T17:27:31.413Z,34.33
2023-01-03T17:30:03.316Z,48.20
2023-01-03T17:32:31.501Z,50.25
2023-01-03T17:34:58.447Z,21.17
2023-01-03T17:37:25.938Z,23.17
2023-01-03T17:39:55.204Z,9.45
2023-01-03T17:42:22.187Z,5.82
2023-01-03T17:44:50.013Z,6.70
2023-01-03T17:47:22.732Z,3.88
2023-01-03T17:49:50.771Z,4.22
2023-01-03T17:52:23.550Z,4.53
2023-01-03T17:54:51.287Z,10.05
2023-01-03T17:57:18.071Z,10.05
2023-01-03T17:59:44.821Z,12.60
2023-01-03T18:02:18.725Z,6.70
2023-01-03T18:07:33.584Z,5.85
2023-01-03T18:10:00.313Z,7.25
2023-01-03T18:12:27.059Z,7.20
2023-01-03T18:14:53.762Z,6.95
2023-01-03T18:17:27.004Z,6.80
2023-01-03T18:19:54.209Z,4.37
2023-01-03T18:22:21.929Z,3.20
2023-01-03T18:24:50.482Z,4.65
2023-01-03T18:27:18.162Z,5.15
2023-01-03T18:29:44.842Z,5.55
2023-01-03T18:32:24.993Z,16.05
2023-01-03T18:34:51.691Z,23.02
2023-01-03T18:37:18.574Z,13.73
2023-01-03T18:39:45.441Z,11.13
2023-01-03T18:42:13.650Z,20.15
2023-01-03T18:44:40.409Z,17.38
2023-01-03T18:47:10.741Z,14.02
2023-01-03T18:49:37.471Z,15.25
2023-01-03T18:52:04.583Z,13.98
2023-01-03T18:54:35.187Z,6.72
2023-01-03T18:57:02.264Z,9.02
2023-01-03T18:59:31.516Z,8.27
2023-01-03T19:01:58.292Z,5.53
2023-01-03T19:04:25.089Z,5.88
2023-01-03T19:06:51.820Z,6.55
2023-01-03T19:09:21.512Z,5.82
2023-01-03T19:11:48.857Z,4.63
2023-01-03T19:14:15.575Z,5.20
2023-01-03T19:16:43.616Z,4.50
2023-01-03T19:19:10.676Z,3.88
2023-01-03T19:21:39.755Z,3.25
2023-01-03T19:24:18.058Z,3.83
2023-01-03T19:26:47.122Z,4.68
2023-01-03T19:29:19.773Z,3.88
2023-01-03T19:31:50.038Z,2.90
2023-01-03T19:34:18.277Z,4.78
2023-01-03T19:36:45.406Z,4.90
2023-01-03T19:39:12.809Z,6.63
2023-01-03T19:41:43.984Z,5.25
2023-01-03T19:44:11.065Z,9.23
2023-01-03T19:46:37.857Z,7.88
2023-01-03T19:49:14.363Z,4.53
2023-01-03T19:51:41.085Z,6.10
2023-01-03T19:54:07.790Z,6.55
2023-01-03T19:56:34.528Z,4.05
2023-01-03T19:59:03.626Z,4.05
2023-01-03T20:01:50.485Z,5.60
2023-01-03T20:04:20.465Z,4.60
2023-01-03T20:06:47.523Z,4.57
2023-01-03T20:09:14.298Z,4.88
2023-01-03T20:11:41.813Z,6.43
2023-01-03T20:14:17.546Z,4.85
2023-01-03T20:16:44.480Z,7.07
2023-01-03T20:19:16.142Z,8.20
2023-01-03T20:21:45.283Z,5.93
2023-01-03T20:24:20.149Z,6.60
2023-01-03T20:26:47.186Z,8.30
2023-01-03T20:29:13.888Z,6.88
2023-01-03T20:31:40.654Z,6.88
2023-01-03T20:34:07.573Z,7.88
2023-01-03T20:36:38.398Z,3.92
2023-01-03T20:39:15.809Z,5.55
2023-01-03T20:41:42.579Z,4.93
2023-01-03T20:44:10.205Z,4.68
2023-01-03T20:46:37.188Z,5.03
2023-01-03T20:49:04.197Z,4.07
2023-01-03T20:51:31.037Z,5.18
2023-01-03T20:53:58.571Z,4.70
2023-01-03T20:56:28.311Z,5.85
2023-01-03T20:58:55.181Z,5.88
2023-01-03T21:01:21.989Z,5.55
2023-01-03T21:03:49.027Z,7.57
2023-01-03T21:06:18.724Z,8.52
2023-01-03T21:08:45.840Z,11.07
2023-01-03T21:11:12.721Z,11.23
2023-01-03T21:13:40.799Z,10.20
2023-01-03T21:16:19.717Z,6.80
2023-01-03T21:18:46.551Z,8.18
2023-01-03T21:21:18.160Z,7.93
2023-01-03T21:23:45.116Z,9.30
2023-01-03T21:26:12.144Z,7.63
2023-01-03T21:28:40.336Z,10.88
2023-01-03T21:31:07.317Z,11.02
2023-01-03T21:33:34.154Z,14.10
2023-01-03T21:36:00.891Z,12.25
2023-01-03T21:38:27.596Z,12.27
2023-01-03T21:40:54.321Z,11.98
2023-01-03T21:43:21.067Z,7.95
2023-01-03T21:45:49.416Z,8.50
2023-01-03T21:48:18.326Z,11.85
2023-01-03T21:50:46.782Z,12.82
2023-01-03T21:53:15.107Z,13.20
2023-01-03T21:55:42.158Z,15.27
2023-01-03T21:58:10.134Z,7.40
2023-01-03T22:00:36.934Z,7.28
2023-01-03T22:03:05.196Z,11.38
2023-01-03T22:05:32.085Z,5.90
2023-01-03T22:08:00.660Z,6.47
2023-01-03T22:10:27.997Z,8.55
2023-01-03T22:12:56.747Z,7.50
2023-01-03T22:15:24.123Z,8.43
2023-01-03T22:17:51.286Z,8.65
2023-01-03T22:20:21.972Z,8.75
2023-01-03T22:22:49.194Z,10.77
2023-01-03T22:25:17.664Z,10.80
2023-01-03T22:27:44.897Z,9.35
2023-01-03T22:30:13.874Z,8.07
2023-01-03T22:32:41.442Z,8.05
2023-01-03T22:35:09.349Z,8.32
2023-01-03T22:37:37.819Z,10.00
2023-01-03T22:40:05.271Z,8.70
2023-01-03T22:42:32.108Z,9.77
2023-01-03T22:44:58.805Z,11.45
2023-01-03T22:47:25.565Z,9.30
2023-01-03T22:49:52.286Z,9.35
2023-01-03T22:52:18.991Z,9.73
2023-01-03T22:54:47.096Z,9.45
2023-01-03T22:57:13.809Z,8.45
2023-01-03T22:59:40.526Z,8.20
2023-01-03T23:02:07.994Z,11.65
2023-01-03T23:04:34.798Z,11.43
2023-01-03T23:07:01.526Z,9.20
2023-01-03T23:09:28.393Z,10.70
2023-01-03T23:11:56.401Z,13.00
2023-01-03T23:14:24.442Z,11.45
2023-01-03T23:16:52.406Z,10.10
2023-01-03T23:19:21.693Z,11.77
2023-01-03T23:21:48.643Z,9.75
2023-01-03T23:24:17.276Z,9.45
2023-01-03T23:26:44.222Z,8.93
2023-01-03T23:29:13.297Z,7.50
2023-01-03T23:31:40.258Z,8.65
2023-01-03T23:34:06.990Z,10.68
2023-01-03T23:36:34.072Z,8.25
2023-01-03T23:39:00.791Z,8.63
2023-01-03T23:41:27.501Z,8.30
2023-01-03T23:43:54.197Z,10.10
2023-01-03T23:46:23.916Z,8.95
2023-01-03T23:48:53.980Z,8.35
2023-01-03T23:51:20.724Z,8.00
2023-01-03T23:53:47.467Z,10.70
2023-01-03T23:56:16.523Z,10.23
2023-01-03T23:58:43.256Z,8.02
